createdAt,value
2019-03-24T00:01:14.514Z,38.50
2019-03-24T00:03:42.907Z,38.49
2019-03-24T00:06:11.387Z,38.11
2019-03-24T00:08:39.786Z,38.03
2019-03-24T00:11:08.176Z,37.97
2019-03-24T00:13:36.571Z,37.75
2019-03-24T00:16:04.982Z,37.75
2019-03-24T00:18:33.443Z,37.56
2019-03-24T00:21:01.835Z,37.65
2019-03-24T00:23:30.512Z,37.77
2019-03-24T00:25:58.909Z,37.62
2019-03-24T00:28:27.302Z,37.62
2019-03-24T00:30:55.710Z,37.47
2019-03-24T00:33:24.102Z,37.55
2019-03-24T00:35:52.544Z,37.52
2019-03-24T00:38:20.953Z,37.39
2019-03-24T00:40:49.346Z,37.29
2019-03-24T00:43:17.737Z,37.36
2019-03-24T00:45:46.139Z,37.25
2019-03-24T00:48:14.540Z,37.26
2019-03-24T00:50:42.973Z,37.22
2019-03-24T00:53:11.370Z,37.13
2019-03-24T00:55:39.791Z,37.25
2019-03-24T00:58:08.186Z,37.10
2019-03-24T01:00:43.813Z,37.18
2019-03-24T01:03:12.212Z,37.01
2019-03-24T01:05:40.819Z,37.19
2019-03-24T01:08:09.435Z,37.21
2019-03-24T01:10:37.816Z,37.11
2019-03-24T01:13:06.745Z,37.06
2019-03-24T01:15:35.190Z,37.06
2019-03-24T01:18:03.648Z,37.06
2019-03-24T01:20:32.166Z,37.04
2019-03-24T01:23:00.567Z,36.95
2019-03-24T01:25:28.964Z,37.00
2019-03-24T01:27:57.391Z,37.08
2019-03-24T01:30:25.786Z,37.00
2019-03-24T01:32:54.188Z,36.96
2019-03-24T01:35:22.578Z,37.05
2019-03-24T01:37:50.976Z,36.93
2019-03-24T01:40:19.376Z,37.06
2019-03-24T01:42:47.781Z,37.01
2019-03-24T01:45:16.176Z,37.01
2019-03-24T01:47:44.610Z,37.05
2019-03-24T01:50:13.009Z,37.11
2019-03-24T01:52:41.412Z,37.11
2019-03-24T01:55:09.802Z,37.14
2019-03-24T01:57:38.195Z,37.12
2019-03-24T02:00:08.300Z,37.03
2019-03-24T02:02:36.732Z,37.07
2019-03-24T02:05:06.572Z,37.15
2019-03-24T02:07:34.975Z,37.05
2019-03-24T02:10:04.510Z,37.05
2019-03-24T02:12:32.946Z,37.14
2019-03-24T02:15:01.350Z,37.12
2019-03-24T02:17:29.787Z,37.06
2019-03-24T02:19:58.187Z,37.11
2019-03-24T02:22:26.626Z,37.08
2019-03-24T02:24:55.020Z,37.00
2019-03-24T02:27:23.443Z,37.00
2019-03-24T02:29:51.833Z,37.02
2019-03-24T02:32:20.253Z,36.99
2019-03-24T02:34:48.657Z,37.08
2019-03-24T02:37:17.120Z,37.11
2019-03-24T02:39:45.521Z,36.99
2019-03-24T02:42:13.954Z,37.04
2019-03-24T02:44:42.347Z,37.10
2019-03-24T02:47:10.788Z,37.01
2019-03-24T02:49:39.181Z,37.05
2019-03-24T02:52:07.683Z,37.01
2019-03-24T02:54:36.081Z,37.00
2019-03-24T02:57:04.548Z,36.92
2019-03-24T02:59:32.954Z,36.87
2019-03-24T03:02:01.395Z,36.96
2019-03-24T03:04:29.775Z,36.94
2019-03-24T03:06:58.178Z,36.92
2019-03-24T03:09:26.580Z,36.92
2019-03-24T03:11:54.984Z,36.95
2019-03-24T03:14:23.391Z,36.96
2019-03-24T03:16:51.792Z,36.95
2019-03-24T03:19:20.192Z,37.04
2019-03-24T03:21:48.590Z,36.90
2019-03-24T03:24:16.990Z,36.92
2019-03-24T03:26:45.385Z,36.99
2019-03-24T03:29:13.781Z,36.96
2019-03-24T03:31:42.257Z,36.97
2019-03-24T03:34:10.648Z,36.91
2019-03-24T03:36:39.084Z,36.90
2019-03-24T03:39:07.513Z,36.96
2019-03-24T03:41:35.988Z,36.99
2019-03-24T03:44:04.431Z,37.08
2019-03-24T03:46:32.864Z,37.06
2019-03-24T03:49:01.264Z,37.12
2019-03-24T03:51:29.670Z,37.06
2019-03-24T03:53:59.233Z,37.10
2019-03-24T03:56:27.850Z,37.04
2019-03-24T03:58:56.240Z,37.05
2019-03-24T04:01:24.765Z,36.98
2019-03-24T04:03:53.166Z,37.08
2019-03-24T04:06:21.565Z,37.06
2019-03-24T04:08:49.969Z,37.15
2019-03-24T04:11:18.454Z,37.09
2019-03-24T04:13:46.833Z,37.15
2019-03-24T04:16:15.294Z,37.16
2019-03-24T04:18:43.704Z,37.17
2019-03-24T04:21:12.098Z,37.23
2019-03-24T04:23:40.570Z,37.05
2019-03-24T04:26:08.963Z,37.04
2019-03-24T04:28:37.401Z,37.11
2019-03-24T04:31:05.791Z,37.09
2019-03-24T04:33:34.193Z,37.07
2019-03-24T04:36:02.666Z,37.15
2019-03-24T04:38:31.068Z,37.08
2019-03-24T04:40:59.474Z,37.11
2019-03-24T04:43:27.881Z,37.07
2019-03-24T04:45:56.288Z,37.13
2019-03-24T04:48:26.256Z,37.16
2019-03-24T04:50:54.662Z,37.09
2019-03-24T04:53:23.064Z,37.08
2019-03-24T04:55:51.461Z,37.09
2019-03-24T04:58:19.896Z,37.04
2019-03-24T05:00:48.312Z,36.99
2019-03-24T05:03:16.744Z,37.04
2019-03-24T05:05:45.144Z,37.02
2019-03-24T05:08:13.581Z,37.04
2019-03-24T05:10:41.974Z,36.81
2019-03-24T05:13:10.417Z,36.95
2019-03-24T05:15:38.820Z,36.96
2019-03-24T05:18:07.240Z,37.01
2019-03-24T05:20:35.636Z,36.95
2019-03-24T05:23:04.071Z,36.89
2019-03-24T05:25:32.467Z,36.94
2019-03-24T05:28:00.920Z,36.89
2019-03-24T05:30:29.319Z,36.82
2019-03-24T05:32:57.746Z,36.94
2019-03-24T05:35:26.147Z,37.00
2019-03-24T05:37:54.700Z,37.02
2019-03-24T05:40:23.103Z,36.97
2019-03-24T05:42:51.543Z,36.97
2019-03-24T05:45:19.944Z,36.98
2019-03-24T05:47:48.384Z,36.83
2019-03-24T05:50:16.891Z,36.84
2019-03-24T05:52:45.339Z,36.94
2019-03-24T05:55:13.744Z,36.91
2019-03-24T05:57:42.232Z,36.92
2019-03-24T06:00:10.706Z,36.93
2019-03-24T06:02:39.178Z,36.88
2019-03-24T06:05:07.618Z,36.88
2019-03-24T06:07:36.051Z,36.91
2019-03-24T06:10:07.164Z,36.97
2019-03-24T06:12:35.669Z,36.95
2019-03-24T06:15:05.230Z,36.88
2019-03-24T06:17:33.658Z,36.90
2019-03-24T06:20:02.058Z,36.81
2019-03-24T06:22:30.457Z,36.78
2019-03-24T06:24:58.862Z,36.90
2019-03-24T06:27:28.932Z,36.87
2019-03-24T06:29:58.972Z,36.83
2019-03-24T06:32:27.375Z,36.76
2019-03-24T06:34:57.309Z,36.84
2019-03-24T06:37:25.745Z,36.80
2019-03-24T06:39:54.178Z,36.77
2019-03-24T06:42:22.634Z,36.64
2019-03-24T06:44:51.099Z,36.60
2019-03-24T06:47:19.507Z,36.80
2019-03-24T06:49:47.903Z,36.74
2019-03-24T06:52:16.561Z,36.76
2019-03-24T06:54:44.955Z,36.77
2019-03-24T06:57:13.364Z,36.75
2019-03-24T06:59:41.768Z,36.70
2019-03-24T07:02:10.166Z,36.69
2019-03-24T07:04:38.590Z,36.75
2019-03-24T07:07:06.991Z,36.72
2019-03-24T07:09:35.475Z,36.69
2019-03-24T07:12:03.878Z,36.70
2019-03-24T07:14:32.281Z,36.60
2019-03-24T07:17:01.778Z,36.52
2019-03-24T07:19:30.176Z,36.57
2019-03-24T07:21:58.582Z,36.57
2019-03-24T07:24:26.994Z,36.59
2019-03-24T07:26:55.390Z,36.62
2019-03-24T07:29:23.792Z,36.58
2019-03-24T07:31:52.193Z,36.63
2019-03-24T07:34:20.669Z,36.61
2019-03-24T07:36:49.071Z,36.52
2019-03-24T07:39:17.495Z,36.64
2019-03-24T07:41:45.902Z,36.50
2019-03-24T07:44:14.391Z,36.54
2019-03-24T07:46:42.788Z,36.50
2019-03-24T07:49:11.240Z,36.55
2019-03-24T07:51:39.711Z,36.62
2019-03-24T07:54:08.229Z,36.62
2019-03-24T07:56:36.691Z,36.47
2019-03-24T07:59:05.134Z,36.50
2019-03-24T08:01:33.537Z,36.42
2019-03-24T08:04:01.975Z,36.40
2019-03-24T08:06:30.372Z,36.40
2019-03-24T08:08:58.812Z,36.47
2019-03-24T08:11:27.231Z,36.41
2019-03-24T08:13:55.662Z,36.44
2019-03-24T08:16:24.034Z,36.54
2019-03-24T08:18:52.452Z,36.45
2019-03-24T08:21:20.839Z,36.46
2019-03-24T08:23:49.283Z,36.46
2019-03-24T08:26:17.676Z,36.48
2019-03-24T08:28:46.102Z,36.56
2019-03-24T08:31:14.504Z,36.45
2019-03-24T08:33:42.920Z,36.50
2019-03-24T08:36:11.308Z,36.45
2019-03-24T08:38:39.739Z,36.33
2019-03-24T08:41:08.139Z,36.22
2019-03-24T08:43:36.596Z,36.29
2019-03-24T08:46:05.000Z,36.12
2019-03-24T08:48:40.819Z,36.05
2019-03-24T08:51:03.556Z,35.99
2019-03-24T08:53:31.960Z,35.90
2019-03-24T08:56:00.391Z,35.80
2019-03-24T08:58:28.754Z,35.79
2019-03-24T09:00:57.215Z,35.70
2019-03-24T09:03:25.612Z,35.64
2019-03-24T09:05:54.005Z,35.60
2019-03-24T09:08:22.394Z,35.53
2019-03-24T09:10:50.829Z,35.51
2019-03-24T09:13:19.228Z,35.50
2019-03-24T09:15:47.650Z,35.46
2019-03-24T09:18:16.054Z,35.45
2019-03-24T09:20:44.485Z,35.38
2019-03-24T09:23:12.871Z,35.37
2019-03-24T09:25:41.386Z,35.36
2019-03-24T09:28:09.882Z,35.27
2019-03-24T09:30:38.348Z,35.27
2019-03-24T09:33:06.754Z,35.28
2019-03-24T09:35:35.205Z,35.24
2019-03-24T09:38:05.236Z,35.22
2019-03-24T09:40:34.871Z,35.17
2019-03-24T09:43:03.320Z,35.18
2019-03-24T09:45:31.970Z,35.17
2019-03-24T09:48:00.544Z,35.10
2019-03-24T09:50:28.936Z,34.99
2019-03-24T09:52:57.498Z,34.85
2019-03-24T09:55:25.896Z,34.75
2019-03-24T09:57:54.283Z,34.59
2019-03-24T10:00:22.676Z,34.44
2019-03-24T10:02:51.070Z,34.29
2019-03-24T10:05:19.456Z,34.14
2019-03-24T10:07:47.846Z,34.07
2019-03-24T10:10:16.233Z,33.92
2019-03-24T10:12:44.620Z,33.73
2019-03-24T10:15:13.019Z,33.58
2019-03-24T10:17:41.400Z,33.40
2019-03-24T10:20:09.791Z,33.25
2019-03-24T10:22:38.261Z,33.12
2019-03-24T10:25:07.426Z,33.01
2019-03-24T10:27:35.820Z,32.88
2019-03-24T10:30:08.138Z,32.86
2019-03-24T10:32:36.615Z,32.49
2019-03-24T10:35:06.735Z,32.28
2019-03-24T10:37:35.121Z,32.02
2019-03-24T10:40:04.198Z,31.67
2019-03-24T10:42:32.650Z,31.29
2019-03-24T10:45:02.763Z,31.06
2019-03-24T10:47:31.148Z,30.91
2019-03-24T10:49:59.578Z,30.49
2019-03-24T10:52:27.972Z,30.16
2019-03-24T10:54:56.402Z,29.81
2019-03-24T10:57:25.301Z,29.49
2019-03-24T10:59:53.735Z,29.24
2019-03-24T11:02:22.190Z,28.88
2019-03-24T11:04:50.664Z,28.46
2019-03-24T11:07:19.050Z,27.94
2019-03-24T11:09:47.491Z,27.29
2019-03-24T11:12:15.882Z,26.64
2019-03-24T11:14:44.388Z,26.01
2019-03-24T11:17:12.783Z,25.41
2019-03-24T11:19:41.178Z,24.74
2019-03-24T11:22:09.574Z,24.26
2019-03-24T11:24:37.992Z,23.67
2019-03-24T11:27:06.395Z,23.13
2019-03-24T11:29:34.781Z,22.76
2019-03-24T11:32:03.176Z,22.39
2019-03-24T11:34:31.573Z,22.07
2019-03-24T11:36:59.975Z,21.72
2019-03-24T11:39:28.364Z,21.37
2019-03-24T11:41:56.757Z,21.02
2019-03-24T11:44:25.156Z,20.71
2019-03-24T11:46:53.550Z,20.52
2019-03-24T11:49:21.935Z,20.26
2019-03-24T11:51:50.343Z,20.15
2019-03-24T11:54:18.729Z,19.92
2019-03-24T11:56:47.150Z,19.71
2019-03-24T11:59:15.536Z,19.56
2019-03-24T12:01:43.968Z,19.33
2019-03-24T12:04:12.356Z,19.19
2019-03-24T12:06:40.850Z,19.04
2019-03-24T12:09:09.257Z,18.79
2019-03-24T12:11:37.687Z,18.61
2019-03-24T12:14:06.141Z,18.45
2019-03-24T12:16:34.571Z,18.28
2019-03-24T12:19:02.974Z,18.09
2019-03-24T12:21:31.403Z,17.92
2019-03-24T12:23:59.791Z,17.73
2019-03-24T12:26:28.226Z,17.56
2019-03-24T12:28:56.719Z,17.38
2019-03-24T12:31:25.137Z,17.13
2019-03-24T12:33:53.605Z,16.98
2019-03-24T12:36:21.992Z,16.84
2019-03-24T12:38:50.384Z,16.70
2019-03-24T12:41:18.772Z,16.50
2019-03-24T12:43:47.165Z,16.29
2019-03-24T12:46:15.555Z,16.10
2019-03-24T12:48:43.947Z,15.91
2019-03-24T12:51:12.344Z,15.80
2019-03-24T12:53:40.732Z,15.70
2019-03-24T12:56:09.114Z,15.53
2019-03-24T12:58:37.535Z,15.29
2019-03-24T13:01:05.926Z,15.16
2019-03-24T13:03:35.911Z,15.07
2019-03-24T13:06:04.894Z,14.86
2019-03-24T13:08:33.287Z,14.71
2019-03-24T13:11:01.733Z,14.63
2019-03-24T13:13:30.117Z,14.56
2019-03-24T13:15:58.525Z,14.38
2019-03-24T13:18:26.943Z,14.35
2019-03-24T13:20:55.364Z,14.29
2019-03-24T13:23:23.744Z,14.16
2019-03-24T13:25:52.175Z,14.16
2019-03-24T13:28:21.090Z,14.06
2019-03-24T13:30:49.486Z,14.00
2019-03-24T13:33:17.877Z,13.97
2019-03-24T13:35:47.445Z,13.99
2019-03-24T13:38:15.838Z,13.95
2019-03-24T13:40:44.224Z,13.98
2019-03-24T13:43:12.700Z,14.01
2019-03-24T13:45:41.097Z,14.05
2019-03-24T13:48:09.552Z,14.12
2019-03-24T13:50:38.069Z,14.15
2019-03-24T13:53:06.462Z,14.20
2019-03-24T13:55:34.843Z,14.29
2019-03-24T13:58:04.424Z,14.32
2019-03-24T14:00:32.822Z,14.31
2019-03-24T14:03:01.455Z,14.36
2019-03-24T14:05:29.839Z,14.39
2019-03-24T14:07:58.228Z,14.41
2019-03-24T14:10:26.625Z,14.51
2019-03-24T14:12:55.019Z,14.59
2019-03-24T14:15:23.413Z,14.56
2019-03-24T14:17:51.813Z,14.57
2019-03-24T14:20:20.202Z,14.65
2019-03-24T14:22:48.594Z,14.94
2019-03-24T14:25:16.986Z,15.92
2019-03-24T14:27:45.410Z,16.94
2019-03-24T14:30:13.798Z,17.79
2019-03-24T14:32:42.213Z,18.65
2019-03-24T14:35:10.607Z,19.45
2019-03-24T14:37:39.091Z,20.38
2019-03-24T14:40:08.010Z,21.12
2019-03-24T14:42:36.432Z,21.77
2019-03-24T14:45:06.956Z,22.44
2019-03-24T14:47:35.393Z,23.20
2019-03-24T14:50:06.351Z,19.84
2019-03-24T14:52:34.776Z,20.69
2019-03-24T14:55:03.175Z,21.83
2019-03-24T14:57:31.609Z,21.72
2019-03-24T14:59:59.996Z,22.35
2019-03-24T15:02:28.410Z,22.40
2019-03-24T15:04:56.816Z,22.26
2019-03-24T15:07:25.246Z,22.84
2019-03-24T15:09:53.632Z,22.86
2019-03-24T15:12:22.109Z,23.06
2019-03-24T15:14:50.491Z,23.36
2019-03-24T15:17:18.972Z,23.49
2019-03-24T15:19:47.367Z,24.14
2019-03-24T15:22:15.772Z,24.13
2019-03-24T15:24:44.185Z,24.61
2019-03-24T15:27:12.658Z,24.93
2019-03-24T15:29:41.056Z,25.10
2019-03-24T15:32:09.482Z,25.15
2019-03-24T15:34:37.914Z,25.40
2019-03-24T15:37:06.323Z,25.80
2019-03-24T15:39:34.887Z,26.07
2019-03-24T15:42:03.317Z,26.53
2019-03-24T15:44:31.725Z,26.30
2019-03-24T15:47:00.119Z,26.38
2019-03-24T15:49:28.510Z,26.58
2019-03-24T15:51:56.898Z,26.88
2019-03-24T15:54:25.383Z,27.37
2019-03-24T15:56:53.778Z,27.22
2019-03-24T15:59:22.163Z,27.46
2019-03-24T16:01:50.681Z,27.69
2019-03-24T16:04:19.073Z,27.98
2019-03-24T16:06:47.466Z,28.03
2019-03-24T16:09:15.860Z,28.22
2019-03-24T16:11:44.249Z,28.32
2019-03-24T16:14:15.222Z,28.26
2019-03-24T16:16:43.610Z,28.53
2019-03-24T16:19:12.014Z,28.79
2019-03-24T16:21:40.396Z,29.02
2019-03-24T16:24:08.791Z,29.29
2019-03-24T16:26:37.180Z,29.54
2019-03-24T16:29:05.576Z,29.52
2019-03-24T16:31:33.962Z,29.58
2019-03-24T16:34:02.353Z,29.76
2019-03-24T16:36:30.860Z,29.76
2019-03-24T16:39:03.569Z,30.41
2019-03-24T16:41:29.385Z,30.18
2019-03-24T16:43:57.779Z,29.99
2019-03-24T16:46:26.179Z,29.94
2019-03-24T16:48:54.566Z,30.63
2019-03-24T16:51:22.954Z,30.69
2019-03-24T16:53:51.432Z,30.83
2019-03-24T16:56:19.791Z,30.92
2019-03-24T16:58:48.456Z,30.87
2019-03-24T17:01:16.885Z,31.09
2019-03-24T17:03:45.275Z,31.00
2019-03-24T17:06:13.705Z,31.21
2019-03-24T17:08:42.064Z,31.68
2019-03-24T17:11:10.461Z,33.17
2019-03-24T17:13:38.921Z,31.24
2019-03-24T17:16:07.309Z,30.66
2019-03-24T17:18:35.772Z,30.77
2019-03-24T17:21:04.169Z,30.87
2019-03-24T17:23:32.635Z,30.63
2019-03-24T17:26:01.023Z,31.06
2019-03-24T17:28:29.446Z,31.01
2019-03-24T17:30:57.832Z,31.13
2019-03-24T17:33:26.263Z,32.70
2019-03-24T17:35:54.739Z,32.47
2019-03-24T17:38:23.219Z,32.54
2019-03-24T17:40:51.614Z,31.52
2019-03-24T17:43:20.057Z,31.23
2019-03-24T17:45:48.458Z,31.22
2019-03-24T17:48:16.940Z,32.23
2019-03-24T17:50:45.344Z,32.38
2019-03-24T17:53:13.802Z,32.48
2019-03-24T17:55:42.201Z,32.68
2019-03-24T17:58:10.639Z,32.75
2019-03-24T18:00:41.569Z,32.84
2019-03-24T18:03:10.002Z,32.90
2019-03-24T18:05:38.467Z,33.01
2019-03-24T18:08:06.937Z,33.08
2019-03-24T18:10:35.338Z,33.14
2019-03-24T18:13:03.909Z,33.23
2019-03-24T18:15:32.316Z,33.47
2019-03-24T18:18:00.803Z,33.58
2019-03-24T18:20:34.656Z,33.73
2019-03-24T18:23:03.048Z,33.95
2019-03-24T18:25:32.335Z,34.31
2019-03-24T18:28:00.791Z,34.41
2019-03-24T18:30:29.192Z,34.41
2019-03-24T18:32:57.605Z,34.66
2019-03-24T18:35:26.035Z,34.80
2019-03-24T18:37:54.447Z,34.99
2019-03-24T18:40:22.924Z,35.13
2019-03-24T18:42:51.320Z,35.19
2019-03-24T18:45:20.518Z,35.29
2019-03-24T18:47:48.918Z,35.86
2019-03-24T18:50:17.314Z,35.72
2019-03-24T18:52:45.718Z,35.75
2019-03-24T18:55:14.355Z,35.82
2019-03-24T18:57:42.777Z,35.80
2019-03-24T19:00:12.683Z,35.95
2019-03-24T19:02:41.149Z,35.99
2019-03-24T19:05:09.552Z,36.14
2019-03-24T19:07:37.961Z,36.31
2019-03-24T19:10:13.324Z,36.30
2019-03-24T19:12:41.719Z,36.36
2019-03-24T19:15:12.725Z,36.51
2019-03-24T19:17:41.127Z,36.59
2019-03-24T19:20:09.518Z,36.49
2019-03-24T19:22:37.922Z,36.61
2019-03-24T19:25:09.337Z,36.64
2019-03-24T19:27:37.731Z,36.76
2019-03-24T19:30:11.233Z,36.92
2019-03-24T19:32:39.640Z,36.88
2019-03-24T19:35:08.043Z,36.99
2019-03-24T19:37:37.963Z,37.02
2019-03-24T19:40:08.913Z,37.02
2019-03-24T19:42:37.305Z,37.06
2019-03-24T19:45:05.843Z,37.11
2019-03-24T19:47:34.297Z,37.21
2019-03-24T19:50:02.924Z,37.20
2019-03-24T19:52:31.330Z,37.31
2019-03-24T19:54:59.739Z,37.32
2019-03-24T19:57:28.133Z,37.16
2019-03-24T19:59:56.568Z,37.33
2019-03-24T20:02:24.971Z,37.39
2019-03-24T20:04:53.404Z,37.43
2019-03-24T20:07:21.827Z,37.29
2019-03-24T20:09:50.259Z,38.09
2019-03-24T20:12:18.667Z,38.18
2019-03-24T20:14:47.101Z,38.30
2019-03-24T20:17:15.498Z,38.71
2019-03-24T20:19:43.916Z,38.83
2019-03-24T20:22:12.314Z,38.49
2019-03-24T20:24:40.829Z,39.09
2019-03-24T20:27:09.219Z,38.98
2019-03-24T20:29:37.619Z,38.91
2019-03-24T20:32:06.069Z,38.99
2019-03-24T20:34:34.473Z,38.92
2019-03-24T20:37:02.916Z,38.81
2019-03-24T20:39:31.384Z,39.03
2019-03-24T20:41:59.791Z,38.93
2019-03-24T20:44:28.196Z,39.05
2019-03-24T20:46:56.592Z,38.89
2019-03-24T20:49:24.993Z,39.08
2019-03-24T20:51:53.397Z,38.99
2019-03-24T20:54:21.867Z,38.98
2019-03-24T20:56:50.269Z,39.05
2019-03-24T20:59:18.658Z,38.86
2019-03-24T21:01:47.055Z,39.06
2019-03-24T21:04:15.748Z,38.93
2019-03-24T21:06:44.162Z,38.93
2019-03-24T21:09:12.554Z,39.18
2019-03-24T21:11:41.049Z,39.07
2019-03-24T21:14:09.437Z,39.26
2019-03-24T21:16:37.918Z,39.13
2019-03-24T21:19:06.310Z,39.18
2019-03-24T21:21:36.245Z,39.32
2019-03-24T21:24:04.852Z,39.32
2019-03-24T21:26:33.264Z,39.57
2019-03-24T21:29:01.662Z,39.70
2019-03-24T21:31:30.107Z,39.74
2019-03-24T21:33:58.504Z,39.72
2019-03-24T21:36:26.984Z,39.66
2019-03-24T21:38:55.387Z,39.92
2019-03-24T21:41:23.930Z,39.97
2019-03-24T21:43:52.429Z,39.92
2019-03-24T21:46:20.909Z,40.02
2019-03-24T21:48:49.375Z,40.04
2019-03-24T21:51:17.770Z,40.09
2019-03-24T21:53:46.162Z,40.04
2019-03-24T21:56:14.979Z,40.02
2019-03-24T21:58:43.369Z,39.82
2019-03-24T22:01:11.760Z,40.20
2019-03-24T22:03:40.151Z,40.25
2019-03-24T22:06:08.552Z,40.25
2019-03-24T22:08:37.031Z,40.22
2019-03-24T22:11:05.425Z,40.21
2019-03-24T22:13:33.850Z,40.18
2019-03-24T22:16:02.231Z,40.27
2019-03-24T22:18:30.629Z,40.20
2019-03-24T22:20:59.023Z,40.30
2019-03-24T22:23:27.420Z,40.53
2019-03-24T22:25:55.825Z,40.54
2019-03-24T22:28:24.217Z,40.60
2019-03-24T22:30:52.639Z,40.49
2019-03-24T22:33:21.043Z,40.26
2019-03-24T22:35:49.465Z,40.09
2019-03-24T22:38:17.873Z,39.76
2019-03-24T22:40:46.289Z,39.69
2019-03-24T22:43:14.682Z,39.65
2019-03-24T22:45:43.116Z,39.72
2019-03-24T22:48:11.590Z,39.53
2019-03-24T22:50:40.268Z,39.36
2019-03-24T22:53:08.668Z,39.26
2019-03-24T22:55:37.119Z,39.14
2019-03-24T22:58:05.484Z,39.15
2019-03-24T23:00:53.078Z,39.14
2019-03-24T23:03:21.713Z,39.05
2019-03-24T23:05:50.114Z,39.00
2019-03-24T23:08:18.521Z,38.89
2019-03-24T23:10:46.935Z,38.84
2019-03-24T23:13:15.337Z,38.76
2019-03-24T23:15:43.736Z,38.82
2019-03-24T23:18:12.128Z,38.74
2019-03-24T23:20:40.534Z,38.71
2019-03-24T23:23:08.932Z,38.53
2019-03-24T23:25:37.332Z,38.63
2019-03-24T23:28:05.910Z,38.56
2019-03-24T23:30:34.301Z,38.41
2019-03-24T23:33:02.709Z,38.51
2019-03-24T23:35:31.115Z,38.47
2019-03-24T23:37:59.514Z,38.55
2019-03-24T23:40:27.913Z,38.53
2019-03-24T23:42:56.329Z,38.49
2019-03-24T23:45:24.717Z,38.31
2019-03-24T23:47:53.189Z,38.30
2019-03-24T23:50:21.587Z,38.39
2019-03-24T23:52:50.018Z,38.35
2019-03-24T23:55:18.412Z,38.41
2019-03-24T23:57:46.872Z,38.41
